aviador You're here:

CYKF Decoded Metar

WATERLOO in ON, CANADA
Report Time2017-11-25 03:00:00
UTC Time2017-11-25 03:59:14
Flight Rules vfr VFR
Wind200° at 16 Gusting to 24 kt
W.Decomp.*RWY 26: 10.3 kt HW 12.3 kt LCW
RWY 14: 5.5 kt HW 15.0 kt RCW
W.Rank200° ranks 8
Current wind is above 200° avg. (9.1)
Visibility9999 m
Phenomena:N/A
Clouds:Overcast 220 Hf
Expected CloudBase > 3,600 ft AGL from Temp-Dew spread
Ceiling22,000 ft
Temp08°C (ISA -5)
Dew Point-1°C (53% RH)
AAT0.1°C
QNH1001 hPa
Density Alt942 ft
Elevation1,040 ft
Report Wrong Elevation
Raw Report
CYKF 250300Z AUTO 20016G24KT 9SM OVC220 08/M01 A2957 RMK
SLP019=

Extra information for CYKF:More info

Metar Taf Metar & Taf Last 4 Metars F.Rules Stats Wind Profile Meteogram Temp Stats Airport Information Weather charts Add Link Nearby VenuesMetar ALERT Operation Metar Decoded Social comments